Time;durP1;ratioP1;P1;durP2;ratioP2;P2;SDS_P1;SDS_P2;PMS_P1;PMS_P2;Temp;Humidity;BMP_temperature;BMP_pressure;BME280_temperature;BME280_humidity;BME280_pressure;Samples;Min_cycle;Max_cycle;Signal;HPM_P1;HPM_P2
2021/10/02 00:45:31;;;;;;;19.08;10.02;;;;;;;10.52;57.87;101583.31;3458779;28;20095;-76
2021/10/02 00:47:14;;;;;;;15.43;10.73;;;;;;;10.51;57.67;101573.63;3460181;28;20041;-76
2021/10/02 00:48:54;;;;;;;19.35;10.90;;;;;;;10.56;57.61;101576.69;3460080;28;20562;-76
2021/10/02 00:50:35;;;;;;;16.30;10.57;;;;;;;10.55;57.65;101575.84;3475531;28;20056;-75
2021/10/02 00:52:18;;;;;;;17.17;11.17;;;;;;;10.54;57.66;101581.34;3492000;28;20534;-76
2021/10/02 00:53:58;;;;;;;21.10;10.98;;;;;;;10.53;57.84;101577.81;3507221;28;20427;-75
2021/10/02 00:55:39;;;;;;;18.25;11.02;;;;;;;10.50;58.22;101566.63;3508714;28;20036;-76
2021/10/02 00:57:20;;;;;;;19.98;11.45;;;;;;;10.56;58.04;101574.88;3508958;28;20043;-74
2021/10/02 00:59:00;;;;;;;23.25;10.50;;;;;;;10.56;58.07;101572.22;3510132;28;20072;-74
2021/10/02 01:00:42;;;;;;;17.90;10.05;;;;;;;10.55;57.61;101580.34;3509452;28;20036;-77
2021/10/02 01:02:43;;;;;;;17.88;11.05;;;;;;;10.55;57.82;101575.00;3494953;28;20036;-76
2021/10/02 01:04:41;;;;;;;19.42;11.48;;;;;;;10.55;57.95;101572.34;3494339;28;20036;-75
2021/10/02 01:06:48;;;;;;;16.63;9.48;;;;;;;10.58;57.79;101569.38;3509193;28;20036;-74
2021/10/02 01:08:42;;;;;;;21.95;10.02;;;;;;;10.59;57.81;101573.75;3508841;28;20096;-74
2021/10/02 01:10:27;;;;;;;19.90;9.45;;;;;;;10.58;57.67;101572.88;3509693;28;20032;-74
2021/10/02 01:12:19;;;;;;;17.33;10.05;;;;;;;10.61;57.84;101569.06;3494473;28;20097;-74
2021/10/02 01:14:25;;;;;;;19.00;11.15;;;;;;;10.66;58.16;101573.00;3508320;28;20465;-75
2021/10/02 01:16:13;;;;;;;18.00;10.55;;;;;;;10.69;57.81;101566.53;3509370;28;20534;-73
2021/10/02 01:17:59;;;;;;;17.30;10.30;;;;;;;10.72;57.89;101571.56;3509175;28;20517;-74
2021/10/02 01:19:55;;;;;;;18.50;11.15;;;;;;;10.73;58.00;101570.56;3509771;28;20093;-74
2021/10/02 01:21:48;;;;;;;17.00;10.77;;;;;;;10.75;57.77;101567.75;3509649;28;20372;-73
2021/10/02 01:23:37;;;;;;;;;;;;;;;10.83;57.79;101568.69;3509875;28;20066;-74
2021/10/02 01:25:36;;;;;;;20.92;9.68;;;;;;;10.77;57.79;101563.94;3494464;28;19977;-75
2021/10/02 01:27:54;;;;;;;15.52;9.85;;;;;;;10.83;57.70;101567.84;3508983;28;20044;-76
2021/10/02 01:29:36;;;;;;;16.58;10.55;;;;;;;10.78;57.82;101568.28;3494211;28;20048;-74
2021/10/02 01:31:25;;;;;;;19.75;10.57;;;;;;;10.74;57.58;101568.72;3491684;28;20526;-76
2021/10/02 01:48:47;;;;;;;18.83;10.55;;;;;;;10.51;57.72;101569.16;3487506;28;20040;-75
2021/10/02 01:50:31;;;;;;;17.20;11.30;;;;;;;10.52;57.84;101569.97;3494234;28;20036;-76
2021/10/02 01:52:15;;;;;;;19.30;11.88;;;;;;;10.53;57.79;101567.16;3491689;28;20890;-76
2021/10/02 01:53:56;;;;;;;20.90;13.20;;;;;;;10.53;57.90;101561.81;3507398;28;20104;-75
2021/10/02 01:55:37;;;;;;;19.08;12.90;;;;;;;10.51;58.06;101557.63;3493937;28;20433;-75
2021/10/02 01:57:18;;;;;;;23.02;14.75;;;;;;;10.58;58.02;101562.22;3506019;28;20042;-74
2021/10/02 01:58:59;;;;;;;24.30;15.18;;;;;;;10.61;58.23;101574.41;3494495;28;20527;-76
2021/10/02 02:00:45;;;;;;;20.58;15.43;;;;;;;10.58;58.16;101561.38;3491185;28;20036;-75
2021/10/02 02:02:30;;;;;;;26.73;14.73;;;;;;;10.58;57.97;101566.72;3507308;28;20028;-76
2021/10/02 02:04:12;;;;;;;23.33;14.95;;;;;;;10.57;57.82;101570.38;3494007;28;20397;-74
2021/10/02 02:05:53;;;;;;;;;;;;;;;10.67;57.76;101572.00;3506816;28;20047;-73
2021/10/02 02:07:35;;;;;;;19.88;14.05;;;;;;;10.58;57.74;101561.38;3494812;28;19920;-73
2021/10/02 02:09:17;;;;;;;25.55;14.70;;;;;;;10.61;57.65;101572.59;3494325;28;20392;-75
2021/10/02 02:10:59;;;;;;;22.70;14.50;;;;;;;10.63;57.63;101575.09;3494478;28;20131;-74
2021/10/02 02:12:40;;;;;;;25.15;15.25;;;;;;;10.63;57.65;101569.78;3508621;28;20042;-75
2021/10/02 02:14:21;;;;;;;20.83;15.15;;;;;;;10.64;57.50;101568.81;3496901;28;20095;-75
2021/10/02 02:16:03;;;;;;;18.33;13.10;;;;;;;10.64;57.55;101568.81;3496393;28;20044;-72
2021/10/02 02:17:46;;;;;;;20.02;14.48;;;;;;;10.64;57.66;101569.63;3509240;28;20048;-73
2021/10/02 02:19:28;;;;;;;22.70;14.35;;;;;;;10.61;57.38;101564.59;3511728;28;20066;-74
2021/10/02 02:21:10;;;;;;;21.90;15.07;;;;;;;10.61;57.52;101563.75;3511296;28;20039;-74
2021/10/02 02:22:52;;;;;;;20.33;13.52;;;;;;;10.62;57.56;101565.44;3497014;28;20041;-74
2021/10/02 02:24:33;;;;;;;17.85;13.18;;;;;;;10.61;57.87;101574.41;3508567;28;20082;-75
2021/10/02 02:26:14;;;;;;;18.63;12.73;;;;;;;10.56;57.79;101568.69;3510942;28;20474;-74
2021/10/02 02:27:56;;;;;;;22.23;12.93;;;;;;;10.52;57.66;101570.81;3511858;28;20036;-75
2021/10/02 02:29:37;;;;;;;19.52;13.23;;;;;;;10.50;57.66;101571.94;3511449;28;20081;-74
2021/10/02 02:31:18;;;;;;;16.95;11.80;;;;;;;10.51;57.87;101578.94;3496180;28;20049;-74
2021/10/02 02:33:00;;;;;;;21.33;13.10;;;;;;;10.50;57.83;101567.44;3497129;28;20513;-75
2021/10/02 02:34:41;;;;;;;21.75;13.05;;;;;;;10.53;57.61;101576.97;3508650;28;20040;-76
2021/10/02 02:36:24;;;;;;;22.33;13.65;;;;;;;10.54;57.55;101570.69;3511125;28;20451;-74
2021/10/02 02:38:04;;;;;;;23.42;12.75;;;;;;;10.52;57.78;101575.31;3511099;28;20036;-75
2021/10/02 02:39:45;;;;;;;19.60;11.82;;;;;;;10.50;57.68;101566.63;3483242;28;20550;-76
2021/10/02 02:41:26;;;;;;;18.50;13.20;;;;;;;10.52;57.82;101567.31;3505539;28;20072;-75
2021/10/02 02:43:09;;;;;;;17.33;12.43;;;;;;;10.49;57.84;101555.13;3511427;28;20035;-75
2021/10/02 02:44:51;;;;;;;22.77;12.68;;;;;;;10.51;57.89;101561.16;3511689;28;20089;-75
2021/10/02 02:46:36;;;;;;;19.67;12.70;;;;;;;10.57;57.88;101573.03;3511199;28;20036;-74
2021/10/02 02:48:26;;;;;;;59.45;36.10;;;;;;;10.60;58.09;101568.25;3496603;28;20131;-73
2021/10/02 02:50:20;;;;;;;61.80;37.92;;;;;;;10.60;57.97;101567.41;3494944;28;20068;-74
2021/10/02 02:52:19;;;;;;;27.23;17.67;;;;;;;10.61;57.87;101572.59;3510251;28;20036;-75
2021/10/02 02:54:22;;;;;;;56.97;35.05;;;;;;;10.66;57.83;101573.00;3497905;28;20060;-74
2021/10/02 02:56:30;;;;;;;38.72;22.60;;;;;;;10.66;57.69;101567.66;3482046;28;20041;-74
2021/10/02 02:58:11;;;;;;;23.77;13.65;;;;;;;10.59;57.46;101565.75;3481166;28;20041;-74
2021/10/02 02:59:58;;;;;;;19.77;12.32;;;;;;;10.61;57.57;101571.75;3484905;28;20100;-74
2021/10/02 03:01:40;;;;;;;22.20;11.25;;;;;;;10.56;57.43;101563.34;3509105;28;20055;-75
2021/10/02 03:03:32;;;;;;;15.65;10.38;;;;;;;10.60;57.35;101564.75;3496353;28;20512;-75
2021/10/02 03:05:16;;;;;;;25.00;15.23;;;;;;;10.55;57.28;101564.34;3495166;28;20044;-73
2021/10/02 03:06:58;;;;;;;21.70;13.10;;;;;;;10.54;57.29;101568.00;3496037;28;20072;-73
2021/10/02 03:08:41;;;;;;;18.52;11.52;;;;;;;10.56;57.24;101568.69;3493803;28;20046;-76
2021/10/02 03:10:22;;;;;;;19.08;11.32;;;;;;;10.55;57.20;101567.00;3508547;28;20048;-75
2021/10/02 03:12:04;;;;;;;15.90;10.52;;;;;;;10.54;57.23;101566.19;3511035;28;20499;-75
2021/10/02 03:13:48;;;;;;;16.85;10.05;;;;;;;10.56;57.31;101566.00;3503796;28;20182;-73
2021/10/02 03:15:30;;;;;;;17.48;10.07;;;;;;;10.59;57.06;101565.75;3495920;28;20044;-75
2021/10/02 03:17:12;;;;;;;17.40;10.30;;;;;;;10.61;57.47;101571.75;3493513;28;20044;-74
2021/10/02 03:18:59;;;;;;;14.00;9.85;;;;;;;10.56;57.54;101560.69;3493852;28;20060;-73
2021/10/02 03:20:40;;;;;;;18.70;11.20;;;;;;;10.58;57.26;101575.53;3507872;28;20060;-73
2021/10/02 03:22:22;;;;;;;16.17;9.48;;;;;;;10.61;57.50;101569.06;3510773;28;20040;-75
2021/10/02 03:24:03;;;;;;;17.83;10.65;;;;;;;10.63;57.38;101569.78;3495984;28;20136;-74
2021/10/02 03:25:45;;;;;;;15.77;9.35;;;;;;;10.61;57.43;101569.06;3485199;28;20051;-75
2021/10/02 03:27:27;;;;;;;17.25;9.98;;;;;;;10.57;57.49;101562.38;3493336;28;20503;-74
2021/10/02 03:29:08;;;;;;;17.40;9.13;;;;;;;10.56;57.71;101574.88;3508186;28;20058;-76
2021/10/02 03:30:49;;;;;;;17.75;10.02;;;;;;;10.56;57.41;101566.88;3496152;28;20525;-75
2021/10/02 03:32:30;;;;;;;16.13;9.73;;;;;;;10.59;57.35;101573.75;3493454;28;20082;-78
2021/10/02 03:34:11;;;;;;;27.45;11.02;;;;;;;10.57;57.42;101570.38;3507959;28;20039;-74
2021/10/02 03:35:53;;;;;;;17.00;9.93;;;;;;;10.57;57.48;101570.38;3492184;28;20032;-72
2021/10/02 03:37:33;;;;;;;21.15;10.00;;;;;;;10.60;57.41;101570.06;3507838;28;20043;-73
2021/10/02 03:39:16;;;;;;;15.35;9.55;;;;;;;10.60;57.34;101576.25;3510892;28;20415;-74
2021/10/02 03:41:01;;;;;;;16.88;9.18;;;;;;;10.57;57.82;101568.53;3510820;28;20490;-75
2021/10/02 03:42:51;;;;;;;14.73;10.65;;;;;;;10.58;57.73;101570.22;3510536;28;20138;-76
2021/10/02 03:44:32;;;;;;;16.73;10.10;;;;;;;10.58;57.69;101569.38;3495171;28;20211;-76
2021/10/02 03:46:13;;;;;;;18.45;9.50;;;;;;;10.64;57.97;101574.13;3507524;28;20040;-76
2021/10/02 03:47:54;;;;;;;19.58;9.25;;;;;;;10.63;57.83;101573.28;3510660;28;20039;-74
2021/10/02 03:49:35;;;;;;;13.25;9.70;;;;;;;10.63;57.47;101572.44;3510053;28;20101;-75
2021/10/02 03:51:17;;;;;;;14.60;9.82;;;;;;;10.60;57.64;101573.56;3510669;28;20047;-74
2021/10/02 03:52:58;;;;;;;21.10;9.43;;;;;;;10.57;57.81;101578.38;3510867;28;20165;-73
2021/10/02 03:54:38;;;;;;;25.13;10.18;;;;;;;10.57;57.59;101568.53;3510405;28;20506;-74
2021/10/02 03:56:19;;;;;;;17.40;10.05;;;;;;;10.59;57.62;101571.06;3510487;28;20076;-73
2021/10/02 03:58:00;;;;;;;19.92;10.50;;;;;;;10.58;57.40;101567.53;3509995;28;20127;-73
2021/10/02 03:59:41;;;;;;;15.23;10.18;;;;;;;10.58;57.37;101575.53;3510029;28;20115;-73
2021/10/02 04:01:21;;;;;;;18.17;10.68;;;;;;;10.59;57.39;101576.41;3510372;28;20055;-73
2021/10/02 04:03:02;;;;;;;15.07;9.85;;;;;;;10.61;57.55;101577.94;3510542;28;20040;-71
2021/10/02 04:04:43;;;;;;;16.92;10.23;;;;;;;10.61;57.53;101569.06;3495446;28;20081;-74
2021/10/02 04:06:23;;;;;;;16.65;10.73;;;;;;;10.62;57.46;101571.59;3507192;28;20089;-73
2021/10/02 04:08:04;;;;;;;17.67;10.88;;;;;;;10.63;57.27;101572.44;3510035;28;20521;-73
2021/10/02 04:09:45;;;;;;;19.42;10.63;;;;;;;10.61;57.38;101577.94;3510883;28;20043;-73
2021/10/02 04:11:26;;;;;;;20.42;10.13;;;;;;;10.65;57.51;101573.97;3510400;28;20032;-73
2021/10/02 04:13:07;;;;;;;17.98;10.20;;;;;;;10.65;57.50;101571.31;3510001;28;20513;-74
2021/10/02 04:14:49;;;;;;;21.20;10.85;;;;;;;10.67;57.57;101571.16;3510651;28;20036;-74
2021/10/02 04:16:30;;;;;;;15.63;8.77;;;;;;;10.69;57.57;101563.88;3509198;28;20509;-73
2021/10/02 04:18:11;;;;;;;17.08;10.60;;;;;;;10.75;57.64;101568.59;3495322;28;20032;-72
2021/10/02 04:19:51;;;;;;;18.05;10.65;;;;;;;10.78;57.79;101570.13;3507932;28;20078;-75
2021/10/02 04:21:32;;;;;;;22.23;11.20;;;;;;;10.80;57.56;101568.16;3510065;28;20090;-74
2021/10/02 04:23:13;;;;;;;27.08;12.13;;;;;;;10.78;57.24;101565.63;3510389;28;20134;-72
2021/10/02 04:24:53;;;;;;;20.52;10.70;;;;;;;10.79;57.29;101559.31;3510611;28;20039;-73
2021/10/02 04:26:34;;;;;;;22.08;10.85;;;;;;;10.73;57.39;101567.88;3494519;28;20043;-73
2021/10/02 04:28:15;;;;;;;21.50;12.48;;;;;;;10.69;57.60;101569.19;3507068;28;20062;-73
2021/10/02 04:29:56;;;;;;;18.27;11.20;;;;;;;10.69;57.66;101561.19;3511158;28;20044;-74
2021/10/02 04:31:36;;;;;;;21.65;12.65;;;;;;;10.72;57.76;101565.41;3510042;28;20055;-73
2021/10/02 04:33:18;;;;;;;21.35;10.70;;;;;;;10.71;57.64;101569.84;3511026;28;20036;-75
2021/10/02 04:34:59;;;;;;;18.98;11.02;;;;;;;10.64;57.69;101566.13;3496084;28;20130;-76
2021/10/02 04:36:39;;;;;;;20.45;11.60;;;;;;;10.58;58.02;101577.38;3506284;28;20047;-75
2021/10/02 04:38:20;;;;;;;15.90;10.00;;;;;;;10.54;57.95;101562.69;3511084;28;20133;-76
2021/10/02 04:40:01;;;;;;;19.63;12.02;;;;;;;10.60;57.86;101567.41;3511191;28;20039;-74
2021/10/02 04:41:42;;;;;;;18.65;11.02;;;;;;;10.62;57.73;101570.78;3510422;28;20054;-73
2021/10/02 04:43:23;;;;;;;14.20;9.98;;;;;;;10.63;57.58;101564.44;3510223;28;20055;-75
2021/10/02 04:45:04;;;;;;;18.85;10.93;;;;;;;10.69;57.81;101566.53;3510066;28;20067;-74
2021/10/02 04:46:44;;;;;;;24.80;11.67;;;;;;;10.75;57.53;101573.09;3502739;28;20036;-76
2021/10/02 04:48:25;;;;;;;18.90;12.27;;;;;;;10.70;57.38;101578.88;3509936;28;20325;-75
2021/10/02 04:50:06;;;;;;;20.35;12.55;;;;;;;10.62;57.47;101570.78;3509904;28;20410;-77
2021/10/02 04:51:48;;;;;;;20.48;10.82;;;;;;;10.55;57.88;101569.69;3509826;28;20040;-76
2021/10/02 04:53:29;;;;;;;21.75;11.43;;;;;;;10.58;57.86;101569.38;3509380;28;20046;-75
2021/10/02 04:55:09;;;;;;;21.00;12.95;;;;;;;10.63;57.55;101580.44;3509507;28;20127;-77
2021/10/02 04:56:50;;;;;;;16.50;11.38;;;;;;;10.57;57.35;101573.03;3509735;28;20036;-77
2021/10/02 04:58:32;;;;;;;16.95;10.73;;;;;;;10.54;57.67;101581.34;3510087;28;20031;-75
2021/10/02 05:00:13;;;;;;;19.08;11.18;;;;;;;10.56;57.90;101576.69;3509881;28;20040;-72
2021/10/02 05:01:53;;;;;;;19.65;12.05;;;;;;;10.61;58.06;101580.59;3510246;28;20143;-74
2021/10/02 05:03:36;;;;;;;16.60;10.63;;;;;;;10.68;57.99;101576.34;3509154;28;20036;-74
2021/10/02 05:05:17;;;;;;;20.52;11.35;;;;;;;10.77;57.76;101576.44;3509859;28;20067;-73
2021/10/02 05:06:57;;;;;;;18.98;10.48;;;;;;;10.84;57.56;101581.03;3509781;28;20427;-74
2021/10/02 05:08:38;;;;;;;17.10;11.38;;;;;;;10.90;57.38;101584.94;3509513;28;20044;-74
2021/10/02 05:10:19;;;;;;;22.27;12.00;;;;;;;10.94;57.29;101585.47;3495353;28;20144;-74
2021/10/02 05:11:59;;;;;;;18.58;10.82;;;;;;;10.90;57.35;101580.44;3508648;28;20047;-73
2021/10/02 05:13:40;;;;;;;17.98;10.38;;;;;;;10.91;57.29;101592.75;3511989;28;20044;-73
2021/10/02 05:15:21;;;;;;;23.55;10.40;;;;;;;10.94;57.44;101594.28;3513713;28;20734;-74
2021/10/02 05:17:04;;;;;;;17.88;11.30;;;;;;;10.93;57.11;101589.97;3512498;28;20062;-76
2021/10/02 05:18:45;;;;;;;17.05;11.95;;;;;;;10.90;56.90;101591.09;3505578;28;20040;-76
2021/10/02 05:20:26;;;;;;;15.93;10.18;;;;;;;10.91;57.05;101598.09;3514095;28;20035;-76
2021/10/02 05:22:07;;;;;;;15.80;10.07;;;;;;;10.98;57.12;101592.19;3515336;28;20051;-78
2021/10/02 05:23:47;;;;;;;18.45;10.02;;;;;;;11.06;57.42;101597.59;3515926;28;20040;-78
2021/10/02 05:25:28;;;;;;;17.65;10.73;;;;;;;11.13;57.23;101599.53;3483814;28;20044;-78
2021/10/02 05:27:10;;;;;;;14.90;9.25;;;;;;;11.19;57.11;101600.75;3503409;28;20499;-75
2021/10/02 05:28:51;;;;;;;19.73;10.88;;;;;;;11.25;57.20;101594.78;3511396;28;20197;-75
2021/10/02 05:30:31;;;;;;;15.70;10.07;;;;;;;11.32;57.52;101595.84;3494629;28;20523;-73
2021/10/02 05:32:13;;;;;;;19.88;11.13;;;;;;;11.41;57.38;101595.94;3506353;28;20043;-74
2021/10/02 05:33:54;;;;;;;21.27;11.25;;;;;;;11.45;56.67;101600.81;3509966;28;20051;-73
2021/10/02 05:35:36;;;;;;;20.33;11.57;;;;;;;11.49;56.24;101598.69;3509457;28;20127;-75
2021/10/02 05:37:17;;;;;;;17.02;9.55;;;;;;;11.52;56.13;101601.06;3510068;28;20044;-75
2021/10/02 05:38:58;;;;;;;15.77;10.55;;;;;;;11.54;56.00;101589.22;3510140;28;20068;-76
2021/10/02 05:40:39;;;;;;;19.58;10.43;;;;;;;11.59;56.13;101594.13;3509286;28;20036;-71
2021/10/02 05:42:19;;;;;;;17.58;10.55;;;;;;;11.63;56.29;101595.47;3509410;28;20579;-72
2021/10/02 05:44:00;;;;;;;18.50;9.77;;;;;;;11.70;56.11;101598.38;3494481;28;20032;-71
2021/10/02 05:45:42;;;;;;;11.73;8.93;;;;;;;11.75;55.77;101596.06;3506500;28;20051;-72
2021/10/02 05:47:25;;;;;;;15.35;9.55;;;;;;;11.80;55.68;101588.44;3508986;28;20044;-69
2021/10/02 05:49:06;;;;;;;18.27;11.20;;;;;;;11.89;55.69;101597.38;3489583;28;20049;-71
2021/10/02 05:50:46;;;;;;;19.48;10.35;;;;;;;11.94;55.64;101590.56;3506661;28;20047;-71
2021/10/02 05:52:27;;;;;;;20.98;11.60;;;;;;;11.95;55.82;101578.88;3494630;28;20041;-71
2021/10/02 05:54:09;;;;;;;18.65;10.75;;;;;;;12.02;55.57;101592.44;3491214;28;20055;-70
2021/10/02 05:56:08;;;;;;;19.27;10.52;;;;;;;11.99;55.09;101596.28;3508934;28;20093;-72
2021/10/02 05:57:49;;;;;;;18.35;11.25;;;;;;;11.85;55.00;101595.97;3508986;28;20511;-71
2021/10/02 05:59:30;;;;;;;18.23;11.00;;;;;;;11.76;54.76;101595.91;3494737;28;20086;-71
2021/10/02 06:01:10;;;;;;;16.83;10.40;;;;;;;11.79;55.54;101598.25;3505765;28;20036;-70
2021/10/02 06:02:51;;;;;;;17.73;9.63;;;;;;;11.88;55.47;101601.03;3509983;28;20036;-70
2021/10/02 06:04:32;;;;;;;17.00;10.38;;;;;;;12.00;55.41;101591.75;3509482;28;20043;-70
2021/10/02 06:06:13;;;;;;;16.23;10.70;;;;;;;12.05;54.94;101591.28;3494555;28;20089;-71
2021/10/02 06:07:55;;;;;;;17.27;10.07;;;;;;;12.11;54.48;101590.69;3507021;28;20040;-72
2021/10/02 06:09:36;;;;;;;;;;;;;;;12.28;54.46;101602.28;3509716;28;20129;-70
2021/10/02 06:11:18;;;;;;;18.63;10.63;;;;;;;12.26;53.95;101593.59;3509519;28;19927;-72
2021/10/02 06:12:59;;;;;;;;;;;;;;;12.41;53.98;101592.81;3509226;28;20040;-72
2021/10/02 06:14:39;;;;;;;19.38;10.80;;;;;;;12.37;53.67;101596.00;3509279;28;19926;-71
2021/10/02 06:16:20;;;;;;;19.20;11.75;;;;;;;12.40;53.32;101593.00;3509286;28;20047;-71
2021/10/02 06:18:00;;;;;;;21.13;11.38;;;;;;;12.42;53.19;101594.53;3508545;28;20055;-70
2021/10/02 06:19:41;;;;;;;16.65;10.25;;;;;;;12.40;53.08;101599.19;3509460;28;20040;-70
2021/10/02 06:21:22;;;;;;;17.90;11.45;;;;;;;12.43;53.10;101596.19;3508927;28;20417;-69
2021/10/02 06:23:04;;;;;;;17.67;11.88;;;;;;;12.47;53.07;101604.75;3509119;28;20384;-71
2021/10/02 06:24:44;;;;;;;19.35;11.30;;;;;;;12.52;52.83;101594.41;3501541;28;20522;-70
2021/10/02 06:26:26;;;;;;;17.38;12.52;;;;;;;12.58;52.71;101609.81;3508958;28;20036;-70
2021/10/02 06:28:07;;;;;;;24.50;12.10;;;;;;;12.64;52.63;101595.78;3508985;28;20042;-70
2021/10/02 06:29:47;;;;;;;19.30;11.68;;;;;;;12.68;52.55;101600.84;3508184;28;20521;-71
2021/10/02 06:31:28;;;;;;;14.52;10.77;;;;;;;12.65;52.43;101586.78;3508751;28;20040;-70
2021/10/02 06:33:09;;;;;;;15.65;10.73;;;;;;;12.67;52.21;101599.97;3508583;28;20050;-72
2021/10/02 06:34:50;;;;;;;18.73;12.02;;;;;;;12.59;52.18;101594.59;3509352;28;20047;-69
2021/10/02 06:36:30;;;;;;;23.00;13.07;;;;;;;12.56;52.27;101608.28;3507517;28;20515;-72
2021/10/02 06:38:11;;;;;;;16.65;12.70;;;;;;;12.61;52.43;101597.94;3508294;28;20032;-70
2021/10/02 06:39:52;;;;;;;15.93;10.55;;;;;;;12.79;52.45;101600.53;3494133;28;20074;-69
2021/10/02 06:41:33;;;;;;;25.52;12.77;;;;;;;12.93;52.01;101602.56;3504624;28;20036;-70
2021/10/02 06:43:13;;;;;;;19.73;11.60;;;;;;;12.97;51.56;101598.56;3508046;28;20040;-70
2021/10/02 06:44:54;;;;;;;15.52;11.13;;;;;;;13.00;51.46;101600.09;3508786;28;20032;-72
2021/10/02 06:46:35;;;;;;;18.73;11.07;;;;;;;12.96;51.82;101601.41;3508294;28;20036;-70
2021/10/02 06:48:15;;;;;;;18.27;11.68;;;;;;;12.87;51.69;101603.22;3508457;28;20264;-71
2021/10/02 06:50:00;;;;;;;22.80;10.95;;;;;;;12.81;51.71;101601.22;3509047;28;20054;-71
2021/10/02 06:51:40;;;;;;;19.15;12.15;;;;;;;12.82;51.75;101594.84;3508629;28;20036;-71
2021/10/02 06:53:21;;;;;;;17.45;11.38;;;;;;;12.85;51.77;101599.88;3508688;28;20067;-71
2021/10/02 06:55:03;;;;;;;20.50;12.27;;;;;;;12.89;51.60;101601.22;3510140;28;20126;-70
2021/10/02 06:56:44;;;;;;;22.92;12.23;;;;;;;12.93;51.55;101607.09;3510440;28;20039;-71
2021/10/02 06:58:24;;;;;;;23.50;12.75;;;;;;;12.85;51.51;101587.31;3511166;28;20036;-72
2021/10/02 07:00:06;;;;;;;16.58;11.23;;;;;;;12.94;51.39;101601.59;3510715;28;20063;-71
2021/10/02 07:01:47;;;;;;;19.38;12.45;;;;;;;12.92;51.39;101600.91;3501219;28;20036;-70
2021/10/02 07:03:28;;;;;;;23.47;12.67;;;;;;;12.91;51.45;101607.25;3510820;28;20043;-70
2021/10/02 07:05:10;;;;;;;17.42;11.85;;;;;;;12.88;51.48;101600.41;3510930;28;20051;-71
2021/10/02 07:06:50;;;;;;;15.65;11.02;;;;;;;12.88;51.41;101596.84;3511642;28;20684;-71
2021/10/02 07:08:31;;;;;;;16.35;11.52;;;;;;;12.97;51.50;101597.75;3510947;28;20032;-72
2021/10/02 07:10:12;;;;;;;17.58;11.68;;;;;;;13.02;51.28;101606.13;3507741;28;20066;-70
2021/10/02 07:11:53;;;;;;;26.13;13.57;;;;;;;13.05;51.31;101598.59;3505017;28;20044;-69
2021/10/02 07:13:34;;;;;;;22.92;12.05;;;;;;;13.09;51.02;101597.28;3510782;28;20044;-70
2021/10/02 07:15:14;;;;;;;20.83;12.27;;;;;;;13.03;50.78;101589.88;3510955;28;20052;-70
2021/10/02 07:16:55;;;;;;;21.63;12.18;;;;;;;13.02;51.26;101598.09;3511008;28;20067;-68
2021/10/02 07:18:36;;;;;;;22.85;12.55;;;;;;;13.03;51.11;101594.41;3481560;28;20044;-70
2021/10/02 07:20:17;;;;;;;22.85;11.93;;;;;;;13.10;51.02;101592.75;3504776;28;20032;-70
2021/10/02 07:21:58;;;;;;;21.13;12.73;;;;;;;13.20;50.61;101592.59;3511036;28;20036;-70
2021/10/02 07:23:38;;;;;;;23.38;13.23;;;;;;;13.20;50.82;101587.25;3510561;28;20290;-71
2021/10/02 07:25:25;;;;;;;25.30;13.15;;;;;;;13.23;50.79;101595.78;3510591;28;20429;-70
2021/10/02 07:27:05;;;;;;;22.65;13.65;;;;;;;13.35;50.78;101590.16;3510860;28;20044;-70
2021/10/02 07:28:47;;;;;;;20.13;12.60;;;;;;;13.41;50.50;101589.47;3511201;28;20384;-70
2021/10/02 07:30:27;;;;;;;27.17;14.25;;;;;;;13.42;50.50;101591.97;3495732;28;20052;-70
2021/10/02 07:32:08;;;;;;;20.65;13.15;;;;;;;13.44;50.33;101595.34;3507511;28;20433;-71
2021/10/02 07:33:49;;;;;;;21.05;12.40;;;;;;;13.46;50.18;101587.97;3510859;28;20047;-71
2021/10/02 07:35:30;;;;;;;24.23;12.95;;;;;;;13.56;50.21;101595.03;3495823;28;20036;-71
2021/10/02 07:37:12;;;;;;;28.17;13.55;;;;;;;13.65;49.87;101586.78;3507333;28;20122;-71
2021/10/02 07:38:53;;;;;;;25.50;13.10;;;;;;;13.76;49.83;101582.97;3510427;28;20051;-70
2021/10/02 07:40:34;;;;;;;28.30;13.50;;;;;;;13.89;49.58;101580.59;3510315;28;20038;-72
2021/10/02 07:42:16;;;;;;;26.05;13.25;;;;;;;13.94;49.31;101588.97;3510642;28;20044;-70
2021/10/02 07:44:00;;;;;;;23.23;14.10;;;;;;;13.95;49.26;101587.94;3510830;28;20044;-70
2021/10/02 07:45:43;;;;;;;27.60;13.90;;;;;;;13.95;49.26;101585.28;3509611;28;20055;-72
2021/10/02 07:47:24;;;;;;;20.45;13.85;;;;;;;14.01;49.17;101588.28;3510373;28;20039;-69
2021/10/02 07:49:06;;;;;;;19.90;13.15;;;;;;;14.06;48.98;101585.91;3509986;28;20487;-69
2021/10/02 07:50:47;;;;;;;19.58;12.77;;;;;;;14.16;49.22;101589.25;3510411;28;20089;-70
2021/10/02 07:52:28;;;;;;;22.83;15.65;;;;;;;14.22;48.95;101593.91;3510215;28;20102;-71
2021/10/02 07:54:09;;;;;;;22.52;13.55;;;;;;;14.27;49.00;101599.59;3495446;28;20523;-72
2021/10/02 07:55:51;;;;;;;23.27;13.80;;;;;;;14.35;48.66;101582.66;3506836;28;20075;-70
2021/10/02 07:57:32;;;;;;;25.90;13.60;;;;;;;14.46;48.22;101593.03;3494428;28;20032;-70
2021/10/02 07:59:13;;;;;;;20.80;13.13;;;;;;;14.49;48.04;101594.53;3502082;28;20044;-71
2021/10/02 08:00:55;;;;;;;19.05;13.30;;;;;;;14.49;47.89;101589.16;3506863;28;20039;-70
2021/10/02 08:02:36;;;;;;;20.27;13.88;;;;;;;14.47;47.83;101593.84;3510776;28;20077;-71
2021/10/02 08:04:17;;;;;;;19.40;13.68;;;;;;;14.51;47.64;101596.03;3510144;28;20032;-69
2021/10/02 08:05:59;;;;;;;20.75;12.80;;;;;;;14.61;47.62;101599.38;3510703;28;20040;-74
2021/10/02 08:07:40;;;;;;;;;;;;;;;14.81;47.80;101599.78;3496358;28;20044;-70
2021/10/02 08:09:22;;;;;;;21.38;13.02;;;;;;;14.77;46.85;101593.09;3507906;28;20385;-69
2021/10/02 08:11:05;;;;;;;26.75;13.45;;;;;;;14.72;46.82;101587.41;3495582;28;20501;-69
2021/10/02 08:12:47;;;;;;;22.83;15.20;;;;;;;14.60;46.90;101591.50;3508172;28;20388;-70
2021/10/02 08:14:27;;;;;;;20.73;13.93;;;;;;;14.57;47.00;101591.84;3493917;28;20463;-69
2021/10/02 08:16:09;;;;;;;24.77;13.23;;;;;;;14.60;47.07;101586.13;3504527;28;20093;-72
2021/10/02 08:17:54;;;;;;;20.75;13.65;;;;;;;14.68;46.64;101588.75;3493357;28;20032;-75
2021/10/02 08:19:36;;;;;;;19.25;13.68;;;;;;;14.70;46.26;101586.75;3494856;28;20033;-74
2021/10/02 08:21:18;;;;;;;25.40;14.63;;;;;;;14.70;46.35;101586.75;3492611;28;20078;-73
2021/10/02 08:23:00;;;;;;;19.95;14.25;;;;;;;14.68;46.41;101583.41;3492916;28;20044;-73
2021/10/02 08:24:41;;;;;;;25.83;15.48;;;;;;;14.69;46.43;101593.13;3478185;28;20449;-73
2021/10/02 08:26:22;;;;;;;24.83;12.82;;;;;;;14.67;46.21;101587.09;3485587;28;20459;-73
2021/10/02 08:28:04;;;;;;;23.92;13.85;;;;;;;14.73;46.24;101586.41;3506686;28;20479;-74
2021/10/02 08:29:45;;;;;;;;;;;;;;;14.92;46.43;101593.19;3502389;28;20090;-73
2021/10/02 08:31:25;;;;;;;20.73;13.88;;;;;;;14.82;46.16;101593.41;3509028;28;19920;-73
2021/10/02 08:33:07;;;;;;;19.20;11.98;;;;;;;14.79;46.20;101580.34;3511967;28;20093;-75
2021/10/02 08:34:48;;;;;;;19.88;12.77;;;;;;;14.87;46.19;101586.66;3500495;28;20045;-73
2021/10/02 08:36:29;;;;;;;21.77;13.02;;;;;;;14.94;45.88;101587.63;3506627;28;20032;-74
2021/10/02 08:38:11;;;;;;;22.50;13.18;;;;;;;15.04;45.67;101585.56;3508895;28;20097;-73
2021/10/02 08:39:51;;;;;;;23.60;13.75;;;;;;;15.13;45.37;101587.19;3494957;28;20086;-73
2021/10/02 08:41:32;;;;;;;19.55;12.57;;;;;;;15.19;45.46;101586.47;3507360;28;20044;-75
2021/10/02 08:43:15;;;;;;;21.10;12.70;;;;;;;15.20;45.02;101588.13;3494841;28;20123;-74
2021/10/02 08:44:56;;;;;;;25.38;14.02;;;;;;;15.20;45.08;101590.81;3507772;28;20040;-73
2021/10/02 08:46:38;;;;;;;22.45;11.50;;;;;;;15.22;45.14;101585.28;3510524;28;20558;-73
2021/10/02 08:48:19;;;;;;;18.95;12.23;;;;;;;15.30;45.00;101589.75;3510491;28;20441;-75